sensor_id;sensor_type;location;lat;lon;timestamp;pressure;altitude;pressure_sealevel;temperature;humidity
16431;BME280;8325;49.284;7.238;2022-09-30T04:02:48;98081.84;;;5.55;97.47
16431;BME280;8325;49.284;7.238;2022-09-30T04:07:00;98088.09;;;5.44;96.89
16431;BME280;8325;49.284;7.238;2022-09-30T04:11:11;98085.34;;;5.20;96.57
16431;BME280;8325;49.284;7.238;2022-09-30T04:15:23;98095.47;;;5.13;98.25
16431;BME280;8325;49.284;7.238;2022-09-30T04:19:34;98098.97;;;5.04;98.28
16431;BME280;8325;49.284;7.238;2022-09-30T04:23:50;98098.66;;;5.07;98.84
16431;BME280;8325;49.284;7.238;2022-09-30T04:28:01;98101.44;;;5.31;98.93
16431;BME280;8325;49.284;7.238;2022-09-30T04:32:13;98104.69;;;5.34;97.97
16431;BME280;8325;49.284;7.238;2022-09-30T04:36:24;98110.22;;;5.39;98.01
16431;BME280;8325;49.284;7.238;2022-09-30T04:40:37;98117.09;;;5.48;97.71
16431;BME280;8325;49.284;7.238;2022-09-30T04:44:49;98118.53;;;5.42;96.97
16431;BME280;8325;49.284;7.238;2022-09-30T04:49:04;98129.41;;;5.28;96.33
16431;BME280;8325;49.284;7.238;2022-09-30T04:53:19;98128.25;;;5.22;97.85
16431;BME280;8325;49.284;7.238;2022-09-30T04:57:31;98133.28;;;5.06;96.75
16431;BME280;8325;49.284;7.238;2022-09-30T05:01:43;98149.41;;;5.00;95.93
16431;BME280;8325;49.284;7.238;2022-09-30T05:05:55;98151.50;;;5.14;96.94
16431;BME280;8325;49.284;7.238;2022-09-30T05:10:07;98155.69;;;5.15;95.75
16431;BME280;8325;49.284;7.238;2022-09-30T05:14:20;98156.97;;;5.11;96.33
16431;BME280;8325;49.284;7.238;2022-09-30T05:18:32;98165.97;;;5.07;96.49
16431;BME280;8325;49.284;7.238;2022-09-30T05:22:44;98170.81;;;5.02;96.95
16431;BME280;8325;49.284;7.238;2022-09-30T05:26:56;98176.78;;;5.02;97.00
16431;BME280;8325;49.284;7.238;2022-09-30T05:31:08;98186.25;;;4.94;97.35
16431;BME280;8325;49.284;7.238;2022-09-30T05:35:20;98190.75;;;4.92;97.32
16431;BME280;8325;49.284;7.238;2022-09-30T05:39:31;98199.38;;;4.82;96.71
16431;BME280;8325;49.284;7.238;2022-09-30T05:43:43;98191.94;;;4.97;97.24
16431;BME280;8325;49.284;7.238;2022-09-30T05:48:00;98200.25;;;4.73;98.00
16431;BME280;8325;49.284;7.238;2022-09-30T05:52:12;98200.16;;;4.93;99.04
16431;BME280;8325;49.284;7.238;2022-09-30T05:56:25;98209.69;;;4.92;98.51
16431;BME280;8325;49.284;7.238;2022-09-30T06:00:40;98213.34;;;5.17;99.17
16431;BME280;8325;49.284;7.238;2022-09-30T06:04:51;98212.81;;;5.31;98.12
16431;BME280;8325;49.284;7.238;2022-09-30T06:09:03;98211.91;;;5.23;97.22
16431;BME280;8325;49.284;7.238;2022-09-30T06:13:15;98218.75;;;5.24;97.36
16431;BME280;8325;49.284;7.238;2022-09-30T06:17:27;98217.47;;;5.28;96.08
16431;BME280;8325;49.284;7.238;2022-09-30T06:21:39;98214.88;;;5.10;96.52
16431;BME280;8325;49.284;7.238;2022-09-30T06:25:54;98223.66;;;5.35;98.00
16431;BME280;8325;49.284;7.238;2022-09-30T06:30:06;98234.69;;;5.19;94.78
16431;BME280;8325;49.284;7.238;2022-09-30T06:34:18;98228.09;;;5.07;95.28
16431;BME280;8325;49.284;7.238;2022-09-30T06:38:31;98245.03;;;5.01;96.71
16431;BME280;8325;49.284;7.238;2022-09-30T06:42:43;98256.28;;;5.10;96.52
16431;BME280;8325;49.284;7.238;2022-09-30T06:46:55;98269.00;;;5.03;97.34
16431;BME280;8325;49.284;7.238;2022-09-30T06:51:06;98276.81;;;5.21;96.93
16431;BME280;8325;49.284;7.238;2022-09-30T06:55:21;98283.16;;;5.45;96.16
16431;BME280;8325;49.284;7.238;2022-09-30T06:59:34;98284.94;;;5.80;96.45
16431;BME280;8325;49.284;7.238;2022-09-30T07:03:46;98291.47;;;5.66;95.43
16431;BME280;8325;49.284;7.238;2022-09-30T07:08:03;98290.22;;;5.88;95.37
16431;BME280;8325;49.284;7.238;2022-09-30T07:12:14;98298.19;;;6.13;95.48
16431;BME280;8325;49.284;7.238;2022-09-30T07:16:27;98296.75;;;6.18;93.46
16431;BME280;8325;49.284;7.238;2022-09-30T07:20:39;98291.06;;;6.41;92.91
16431;BME280;8325;49.284;7.238;2022-09-30T07:24:50;98277.06;;;6.60;91.16
16431;BME280;8325;49.284;7.238;2022-09-30T07:29:02;98282.00;;;6.45;88.54
16431;BME280;8325;49.284;7.238;2022-09-30T07:33:13;98294.41;;;6.33;91.40
16431;BME280;8325;49.284;7.238;2022-09-30T07:37:26;98300.09;;;6.63;92.45
16431;BME280;8325;49.284;7.238;2022-09-30T07:41:38;98303.25;;;6.75;91.37
16431;BME280;8325;49.284;7.238;2022-09-30T07:45:50;98303.31;;;6.91;90.75
16431;BME280;8325;49.284;7.238;2022-09-30T07:50:02;98312.88;;;6.90;90.87
16431;BME280;8325;49.284;7.238;2022-09-30T07:54:17;98310.34;;;7.07;91.75
16431;BME280;8325;49.284;7.238;2022-09-30T07:58:29;98317.84;;;7.26;90.83
16431;BME280;8325;49.284;7.238;2022-09-30T08:02:41;98319.38;;;7.37;91.53
16431;BME280;8325;49.284;7.238;2022-09-30T08:06:56;98321.97;;;7.53;90.74
16431;BME280;8325;49.284;7.238;2022-09-30T08:11:08;98327.84;;;7.55;89.61
16431;BME280;8325;49.284;7.238;2022-09-30T08:15:19;98330.78;;;7.60;90.78
16431;BME280;8325;49.284;7.238;2022-09-30T08:19:31;98332.72;;;7.75;90.82
16431;BME280;8325;49.284;7.238;2022-09-30T08:23:44;98335.28;;;7.50;90.55
16431;BME280;8325;49.284;7.238;2022-09-30T08:27:55;98341.66;;;7.72;90.51
16431;BME280;8325;49.284;7.238;2022-09-30T08:32:07;98345.41;;;7.78;91.47
16431;BME280;8325;49.284;7.238;2022-09-30T08:36:23;98338.63;;;7.85;90.05
16431;BME280;8325;49.284;7.238;2022-09-30T08:40:48;98346.72;;;8.06;90.02
16431;BME280;8325;49.284;7.238;2022-09-30T08:53:42;98355.97;;;8.74;90.00
16431;BME280;8325;49.284;7.238;2022-09-30T08:57:56;98363.41;;;8.86;88.50
16431;BME280;8325;49.284;7.238;2022-09-30T09:02:27;98369.75;;;8.91;88.09
16431;BME280;8325;49.284;7.238;2022-09-30T09:11:13;98369.25;;;9.35;87.63
16431;BME280;8325;49.284;7.238;2022-09-30T09:24:20;98366.41;;;9.76;86.63
16431;BME280;8325;49.284;7.238;2022-09-30T09:28:36;98377.94;;;9.59;87.13
16431;BME280;8325;49.284;7.238;2022-09-30T09:32:55;98373.25;;;9.77;87.68
16431;BME280;8325;49.284;7.238;2022-09-30T09:46:44;98371.63;;;9.76;89.85
16431;BME280;8325;49.284;7.238;2022-09-30T09:51:02;98367.47;;;9.90;89.02
16431;BME280;8325;49.284;7.238;2022-09-30T09:55:20;98368.38;;;9.97;88.16
16431;BME280;8325;49.284;7.238;2022-09-30T09:59:32;98370.00;;;10.21;85.40
16431;BME280;8325;49.284;7.238;2022-09-30T10:03:43;98360.63;;;10.50;85.16
16431;BME280;8325;49.284;7.238;2022-09-30T10:08:15;98362.09;;;10.82;83.44
16431;BME280;8325;49.284;7.238;2022-09-30T10:12:27;98364.16;;;11.16;82.68
16431;BME280;8325;49.284;7.238;2022-09-30T10:16:39;98353.31;;;11.49;80.93
16431;BME280;8325;49.284;7.238;2022-09-30T10:21:04;98353.19;;;11.79;77.85
16431;BME280;8325;49.284;7.238;2022-09-30T10:25:20;98353.84;;;12.02;74.75
16431;BME280;8325;49.284;7.238;2022-09-30T10:29:34;98346.38;;;12.20;74.49
16431;BME280;8325;49.284;7.238;2022-09-30T10:33:47;98354.19;;;12.42;73.85
16431;BME280;8325;49.284;7.238;2022-09-30T10:38:02;98349.44;;;12.59;68.10
16431;BME280;8325;49.284;7.238;2022-09-30T10:42:19;98341.09;;;12.77;69.41
16431;BME280;8325;49.284;7.238;2022-09-30T10:46:39;98352.50;;;12.90;70.12
16431;BME280;8325;49.284;7.238;2022-09-30T10:50:52;98352.53;;;13.04;68.52
16431;BME280;8325;49.284;7.238;2022-09-30T10:55:13;98346.97;;;13.20;68.64
16431;BME280;8325;49.284;7.238;2022-09-30T10:59:37;98362.03;;;13.11;67.82
16431;BME280;8325;49.284;7.238;2022-09-30T11:12:39;98329.97;;;13.03;70.69
16431;BME280;8325;49.284;7.238;2022-09-30T11:17:07;98345.81;;;12.88;68.90
16431;BME280;8325;49.284;7.238;2022-09-30T11:21:35;98341.91;;;12.77;71.09
16431;BME280;8325;49.284;7.238;2022-09-30T11:44:26;98358.16;;;12.94;71.18
16431;BME280;8325;49.284;7.238;2022-09-30T11:48:59;98346.50;;;13.51;67.22
16431;BME280;8325;49.284;7.238;2022-09-30T11:53:37;98349.03;;;13.93;68.43
16431;BME280;8325;49.284;7.238;2022-09-30T11:58:15;98346.41;;;14.26;66.37
16431;BME280;8325;49.284;7.238;2022-09-30T12:02:53;98353.66;;;13.97;62.93
16431;BME280;8325;49.284;7.238;2022-09-30T12:07:25;98350.00;;;13.72;64.65
16431;BME280;8325;49.284;7.238;2022-09-30T12:12:05;98347.91;;;13.47;65.12
16431;BME280;8325;49.284;7.238;2022-09-30T12:16:26;98353.53;;;13.44;65.62
16431;BME280;8325;49.284;7.238;2022-09-30T12:20:47;98351.94;;;13.43;65.30
16431;BME280;8325;49.284;7.238;2022-09-30T12:25:01;98333.84;;;13.75;62.56
16431;BME280;8325;49.284;7.238;2022-09-30T12:29:36;98345.53;;;13.66;61.80
16431;BME280;8325;49.284;7.238;2022-09-30T12:34:20;98344.13;;;13.70;62.48
16431;BME280;8325;49.284;7.238;2022-09-30T12:47:39;98352.88;;;14.70;58.23
16431;BME280;8325;49.284;7.238;2022-09-30T12:52:02;98348.16;;;14.92;57.93
16431;BME280;8325;49.284;7.238;2022-09-30T12:56:16;98355.19;;;15.18;55.88
16431;BME280;8325;49.284;7.238;2022-09-30T13:00:33;98356.88;;;15.44;55.32
16431;BME280;8325;49.284;7.238;2022-09-30T13:04:45;98362.41;;;15.29;56.45
16431;BME280;8325;49.284;7.238;2022-09-30T13:09:17;98367.13;;;15.14;56.23
16431;BME280;8325;49.284;7.238;2022-09-30T13:13:30;98360.38;;;15.31;57.05
16431;BME280;8325;49.284;7.238;2022-09-30T13:17:44;98363.13;;;15.50;56.53
16431;BME280;8325;49.284;7.238;2022-09-30T13:26:40;98357.03;;;15.56;56.57
16431;BME280;8325;49.284;7.238;2022-09-30T13:31:19;98362.91;;;15.58;56.50
16431;BME280;8325;49.284;7.238;2022-09-30T13:39:52;98361.88;;;15.59;56.94
16431;BME280;8325;49.284;7.238;2022-09-30T13:44:08;98362.06;;;15.19;58.37
16431;BME280;8325;49.284;7.238;2022-09-30T13:48:34;98364.78;;;14.79;59.19
16431;BME280;8325;49.284;7.238;2022-09-30T13:52:54;98363.97;;;14.85;59.38
16431;BME280;8325;49.284;7.238;2022-09-30T13:57:16;98369.78;;;15.01;57.95
16431;BME280;8325;49.284;7.238;2022-09-30T14:21:04;98354.16;;;15.19;55.03
16431;BME280;8325;49.284;7.238;2022-09-30T14:25:23;98339.38;;;15.25;55.20
16431;BME280;8325;49.284;7.238;2022-09-30T14:29:56;98334.13;;;15.18;54.26
16431;BME280;8325;49.284;7.238;2022-09-30T14:34:14;98319.97;;;15.19;54.05
16431;BME280;8325;49.284;7.238;2022-09-30T14:38:51;98322.16;;;15.22;53.67
16431;BME280;8325;49.284;7.238;2022-09-30T14:43:07;98322.47;;;15.01;52.70
16431;BME280;8325;49.284;7.238;2022-09-30T14:47:25;98339.84;;;15.02;52.82
16431;BME280;8325;49.284;7.238;2022-09-30T14:51:44;98340.44;;;15.04;53.67
16431;BME280;8325;49.284;7.238;2022-09-30T14:56:17;98335.03;;;14.92;53.32
16431;BME280;8325;49.284;7.238;2022-09-30T15:00:31;98334.03;;;14.86;54.11
16431;BME280;8325;49.284;7.238;2022-09-30T15:04:58;98335.03;;;14.85;53.83
16431;BME280;8325;49.284;7.238;2022-09-30T15:09:28;98332.00;;;14.88;53.34
16431;BME280;8325;49.284;7.238;2022-09-30T15:13:42;98326.13;;;14.86;54.48
16431;BME280;8325;49.284;7.238;2022-09-30T15:17:54;98318.84;;;14.88;53.74
16431;BME280;8325;49.284;7.238;2022-09-30T15:22:08;98311.34;;;14.92;53.84
16431;BME280;8325;49.284;7.238;2022-09-30T15:26:24;98308.75;;;14.85;53.58
16431;BME280;8325;49.284;7.238;2022-09-30T15:30:36;98308.97;;;14.77;54.05
16431;BME280;8325;49.284;7.238;2022-09-30T15:34:48;98307.97;;;14.78;54.54
16431;BME280;8325;49.284;7.238;2022-09-30T15:39:00;98313.44;;;14.70;54.77
16431;BME280;8325;49.284;7.238;2022-09-30T15:43:14;98310.59;;;14.65;54.82
16431;BME280;8325;49.284;7.238;2022-09-30T15:47:27;98309.03;;;14.57;54.46
16431;BME280;8325;49.284;7.238;2022-09-30T15:51:40;98318.91;;;14.62;55.25
16431;BME280;8325;49.284;7.238;2022-09-30T15:55:57;98320.13;;;14.66;55.83
16431;BME280;8325;49.284;7.238;2022-09-30T16:00:29;98316.09;;;14.63;56.31
16431;BME280;8325;49.284;7.238;2022-09-30T16:04:49;98317.31;;;14.54;56.48
16431;BME280;8325;49.284;7.238;2022-09-30T16:09:16;98319.53;;;14.50;57.78
16431;BME280;8325;49.284;7.238;2022-09-30T16:13:29;98318.91;;;14.42;57.21
16431;BME280;8325;49.284;7.238;2022-09-30T16:17:46;98321.75;;;14.27;57.88
16431;BME280;8325;49.284;7.238;2022-09-30T16:21:59;98324.16;;;14.22;59.44
16431;BME280;8325;49.284;7.238;2022-09-30T16:26:21;98328.41;;;14.10;60.13
16431;BME280;8325;49.284;7.238;2022-09-30T16:30:49;98336.69;;;13.93;61.38
16431;BME280;8325;49.284;7.238;2022-09-30T16:35:04;98342.13;;;13.85;62.45
16431;BME280;8325;49.284;7.238;2022-09-30T16:39:16;98339.88;;;13.69;62.79
16431;BME280;8325;49.284;7.238;2022-09-30T16:43:29;98339.88;;;13.55;63.19
16431;BME280;8325;49.284;7.238;2022-09-30T16:47:42;98335.00;;;13.46;63.94
16431;BME280;8325;49.284;7.238;2022-09-30T16:51:54;98351.88;;;13.30;64.92
16431;BME280;8325;49.284;7.238;2022-09-30T16:56:08;98360.84;;;13.14;65.46
16431;BME280;8325;49.284;7.238;2022-09-30T17:00:25;98352.50;;;12.97;66.10
16431;BME280;8325;49.284;7.238;2022-09-30T17:04:36;98357.59;;;12.71;68.05
16431;BME280;8325;49.284;7.238;2022-09-30T17:08:49;98363.84;;;12.41;70.84
16431;BME280;8325;49.284;7.238;2022-09-30T17:13:01;98372.28;;;12.15;72.58
16431;BME280;8325;49.284;7.238;2022-09-30T17:17:13;98374.22;;;11.85;74.71
16431;BME280;8325;49.284;7.238;2022-09-30T17:21:26;98381.56;;;11.60;75.62
16431;BME280;8325;49.284;7.238;2022-09-30T17:25:38;98388.75;;;11.37;76.54
16431;BME280;8325;49.284;7.238;2022-09-30T17:29:51;98398.34;;;11.15;78.03
16431;BME280;8325;49.284;7.238;2022-09-30T17:34:03;98406.53;;;10.97;79.04
16431;BME280;8325;49.284;7.238;2022-09-30T17:38:18;98418.88;;;10.88;78.81
16431;BME280;8325;49.284;7.238;2022-09-30T17:42:29;98424.06;;;10.73;79.02
16431;BME280;8325;49.284;7.238;2022-09-30T17:46:59;98427.41;;;10.67;79.83
16431;BME280;8325;49.284;7.238;2022-09-30T17:51:12;98432.78;;;10.51;80.01
16431;BME280;8325;49.284;7.238;2022-09-30T17:55:23;98426.06;;;10.33;80.11
16431;BME280;8325;49.284;7.238;2022-09-30T17:59:35;98429.06;;;10.22;80.55
16431;BME280;8325;49.284;7.238;2022-09-30T18:03:46;98424.94;;;10.05;81.37
16431;BME280;8325;49.284;7.238;2022-09-30T18:07:58;98409.84;;;9.92;81.67
16431;BME280;8325;49.284;7.238;2022-09-30T18:12:10;98411.22;;;9.80;82.41
16431;BME280;8325;49.284;7.238;2022-09-30T18:16:26;98409.00;;;9.68;82.51
16431;BME280;8325;49.284;7.238;2022-09-30T18:20:42;98400.94;;;9.55;82.88
16431;BME280;8325;49.284;7.238;2022-09-30T18:24:55;98398.69;;;9.44;83.33
16431;BME280;8325;49.284;7.238;2022-09-30T18:29:25;98405.72;;;9.35;83.28
16431;BME280;8325;49.284;7.238;2022-09-30T18:33:36;98416.84;;;9.29;83.35
16431;BME280;8325;49.284;7.238;2022-09-30T18:37:48;98419.97;;;9.25;84.26
16431;BME280;8325;49.284;7.238;2022-09-30T18:42:00;98412.97;;;9.17;84.02
16431;BME280;8325;49.284;7.238;2022-09-30T18:46:12;98410.41;;;9.09;84.05
16431;BME280;8325;49.284;7.238;2022-09-30T18:50:28;98412.38;;;8.98;84.13
16431;BME280;8325;49.284;7.238;2022-09-30T18:54:40;98411.41;;;8.91;84.67
16431;BME280;8325;49.284;7.238;2022-09-30T18:58:51;98407.53;;;8.87;84.81
16431;BME280;8325;49.284;7.238;2022-09-30T19:03:03;98415.19;;;8.72;84.78
16431;BME280;8325;49.284;7.238;2022-09-30T19:07:19;98418.00;;;8.63;85.07
16431;BME280;8325;49.284;7.238;2022-09-30T19:11:31;98432.47;;;8.57;84.81
16431;BME280;8325;49.284;7.238;2022-09-30T19:15:43;98421.56;;;8.53;85.35
16431;BME280;8325;49.284;7.238;2022-09-30T19:19:56;98426.78;;;8.45;85.29
16431;BME280;8325;49.284;7.238;2022-09-30T19:24:10;98434.44;;;8.39;85.21
16431;BME280;8325;49.284;7.238;2022-09-30T19:28:22;98436.19;;;8.30;84.80
16431;BME280;8325;49.284;7.238;2022-09-30T19:32:34;98443.31;;;8.28;85.60
16431;BME280;8325;49.284;7.238;2022-09-30T19:36:46;98456.03;;;8.23;85.78
16431;BME280;8325;49.284;7.238;2022-09-30T19:41:03;98465.94;;;8.19;86.09
16431;BME280;8325;49.284;7.238;2022-09-30T19:45:15;98459.72;;;8.12;85.88
16431;BME280;8325;49.284;7.238;2022-09-30T19:49:27;98460.22;;;8.07;85.88
16431;BME280;8325;49.284;7.238;2022-09-30T19:53:40;98449.47;;;8.02;86.61
16431;BME280;8325;49.284;7.238;2022-09-30T19:57:57;98439.72;;;7.96;86.84
16431;BME280;8325;49.284;7.238;2022-09-30T20:02:10;98441.00;;;8.00;86.27
16431;BME280;8325;49.284;7.238;2022-09-30T20:06:22;98445.91;;;7.95;86.43
16431;BME280;8325;49.284;7.238;2022-09-30T20:10:34;98441.00;;;7.92;86.48
16431;BME280;8325;49.284;7.238;2022-09-30T20:14:45;98433.84;;;7.86;86.37
16431;BME280;8325;49.284;7.238;2022-09-30T20:19:16;98427.66;;;7.79;86.76
16431;BME280;8325;49.284;7.238;2022-09-30T20:23:28;98431.84;;;7.72;86.63
16431;BME280;8325;49.284;7.238;2022-09-30T20:27:40;98438.03;;;7.71;86.57
16431;BME280;8325;49.284;7.238;2022-09-30T20:32:02;98444.84;;;7.64;87.04
16431;BME280;8325;49.284;7.238;2022-09-30T20:36:14;98465.59;;;7.55;86.96
16431;BME280;8325;49.284;7.238;2022-09-30T20:40:25;98457.81;;;7.55;87.30
16431;BME280;8325;49.284;7.238;2022-09-30T20:44:37;98471.47;;;7.57;87.13
16431;BME280;8325;49.284;7.238;2022-09-30T20:48:49;98470.13;;;7.53;87.48
16431;BME280;8325;49.284;7.238;2022-09-30T20:53:07;98464.94;;;7.53;87.36
16431;BME280;8325;49.284;7.238;2022-09-30T20:57:19;98476.75;;;7.48;87.14
16431;BME280;8325;49.284;7.238;2022-09-30T21:01:31;98464.59;;;7.48;86.51
16431;BME280;8325;49.284;7.238;2022-09-30T21:05:51;98466.03;;;7.43;86.66
16431;BME280;8325;49.284;7.238;2022-09-30T21:10:03;98472.66;;;7.37;87.20
16431;BME280;8325;49.284;7.238;2022-09-30T21:14:17;98461.59;;;7.35;87.09
16431;BME280;8325;49.284;7.238;2022-09-30T21:18:30;98456.09;;;7.38;86.67
16431;BME280;8325;49.284;7.238;2022-09-30T21:22:41;98438.41;;;7.42;87.33
16431;BME280;8325;49.284;7.238;2022-09-30T21:26:53;98445.44;;;7.49;86.83
